createdAt,value
2022-12-26T00:02:07.223Z,99.90
2022-12-26T00:04:51.514Z,99.90
2022-12-26T00:07:20.278Z,99.90
2022-12-26T00:09:47.344Z,99.90
2022-12-26T00:12:14.548Z,99.90
2022-12-26T00:14:44.176Z,99.90
2022-12-26T00:17:20.261Z,99.90
2022-12-26T00:19:47.385Z,99.90
2022-12-26T00:22:16.071Z,99.90
2022-12-26T00:24:43.445Z,99.90
2022-12-26T00:27:10.502Z,99.90
2022-12-26T00:29:38.314Z,99.90
2022-12-26T00:32:12.745Z,99.90
2022-12-26T00:34:40.652Z,99.90
2022-12-26T00:37:07.739Z,99.90
2022-12-26T00:39:34.780Z,99.90
2022-12-26T00:42:01.847Z,99.90
2022-12-26T00:44:28.948Z,99.90
2022-12-26T00:46:56.078Z,99.90
2022-12-26T00:49:27.675Z,99.90
2022-12-26T00:51:54.877Z,99.90
2022-12-26T00:54:27.647Z,99.90
2022-12-26T00:56:54.797Z,99.90
2022-12-26T00:59:21.937Z,99.90
2022-12-26T01:01:49.343Z,99.90
2022-12-26T01:04:16.627Z,99.90
2022-12-26T01:06:43.701Z,99.90
2022-12-26T01:09:13.427Z,99.90
2022-12-26T01:11:42.400Z,99.90
2022-12-26T01:14:15.928Z,99.90
2022-12-26T01:16:45.457Z,99.90
2022-12-26T01:19:15.602Z,99.90
2022-12-26T01:21:43.308Z,99.90
2022-12-26T01:24:10.465Z,99.90
2022-12-26T01:26:40.572Z,99.90
2022-12-26T01:29:07.671Z,99.90
2022-12-26T01:31:34.947Z,99.90
2022-12-26T01:34:02.126Z,99.90
2022-12-26T01:36:29.238Z,99.90
2022-12-26T01:38:56.437Z,99.90
2022-12-26T01:41:26.953Z,99.90
2022-12-26T01:43:59.860Z,99.90
2022-12-26T01:46:35.051Z,99.90
2022-12-26T01:49:20.989Z,99.90
2022-12-26T01:51:56.570Z,99.90
2022-12-26T01:54:40.219Z,99.90
2022-12-26T01:57:21.330Z,99.90
2022-12-26T01:59:52.773Z,99.90
2022-12-26T02:02:21.871Z,99.90
2022-12-26T02:05:10.163Z,99.90
2022-12-26T02:07:40.883Z,99.90
2022-12-26T02:10:13.091Z,99.90
2022-12-26T02:12:41.208Z,99.90
2022-12-26T02:15:12.148Z,99.90
2022-12-26T02:17:40.168Z,99.90
2022-12-26T02:20:20.921Z,99.90
2022-12-26T02:23:29.385Z,99.90
2022-12-26T02:26:25.030Z,99.90
2022-12-26T02:29:20.048Z,99.90
2022-12-26T02:32:09.135Z,99.90
2022-12-26T02:35:27.173Z,99.90
2022-12-26T02:38:07.162Z,99.90
2022-12-26T02:41:06.943Z,99.90
2022-12-26T02:43:52.100Z,99.90
2022-12-26T02:47:03.363Z,99.90
2022-12-26T02:50:12.974Z,99.90
2022-12-26T02:53:01.481Z,99.90
2022-12-26T02:55:50.028Z,99.90
2022-12-26T02:58:47.330Z,99.90
2022-12-26T03:01:52.243Z,99.90
2022-12-26T03:04:41.809Z,99.90
2022-12-26T03:07:45.976Z,99.90
2022-12-26T03:10:53.017Z,99.90
2022-12-26T03:13:31.349Z,99.90
2022-12-26T03:16:40.956Z,99.90
2022-12-26T03:19:11.331Z,99.90
2022-12-26T03:21:45.216Z,99.90
2022-12-26T03:24:16.334Z,99.90
2022-12-26T03:26:50.319Z,99.90
2022-12-26T03:29:42.636Z,99.90
2022-12-26T03:32:12.158Z,99.90
2022-12-26T03:34:44.325Z,99.90
2022-12-26T03:37:48.755Z,99.90
2022-12-26T03:40:49.568Z,99.90
2022-12-26T03:43:56.969Z,99.90
2022-12-26T03:47:01.207Z,99.90
2022-12-26T03:49:51.582Z,99.90
2022-12-26T03:52:46.774Z,99.90
2022-12-26T03:55:43.505Z,99.90
2022-12-26T03:58:32.268Z,99.90
2022-12-26T04:01:21.493Z,99.90
2022-12-26T04:04:09.516Z,99.90
2022-12-26T04:07:24.878Z,99.90
2022-12-26T04:10:39.516Z,99.90
2022-12-26T04:13:34.661Z,99.90
2022-12-26T04:16:28.712Z,99.90
2022-12-26T04:19:25.741Z,99.90
2022-12-26T04:22:17.299Z,99.90
2022-12-26T04:25:20.136Z,99.90
2022-12-26T04:28:26.211Z,99.90
2022-12-26T04:31:20.915Z,99.90
2022-12-26T04:34:17.104Z,99.90
2022-12-26T04:37:09.452Z,99.90
2022-12-26T04:39:57.148Z,99.90
2022-12-26T04:42:45.207Z,99.90
2022-12-26T04:45:13.947Z,99.90
2022-12-26T04:48:01.163Z,99.90
2022-12-26T04:50:28.281Z,99.90
2022-12-26T04:52:58.729Z,99.90
2022-12-26T04:55:29.674Z,99.90
2022-12-26T04:57:57.438Z,99.90
2022-12-26T05:00:28.192Z,99.90
2022-12-26T05:03:19.097Z,99.90
2022-12-26T05:06:10.645Z,99.90
2022-12-26T05:09:00.571Z,99.90
2022-12-26T05:11:30.906Z,99.90
2022-12-26T05:13:59.080Z,99.90
2022-12-26T05:16:46.476Z,99.90
2022-12-26T05:19:35.920Z,99.90
2022-12-26T05:22:23.900Z,99.90
2022-12-26T05:25:09.492Z,99.90
2022-12-26T05:27:58.894Z,99.90
2022-12-26T05:30:26.496Z,99.90
2022-12-26T05:33:15.109Z,99.90
2022-12-26T05:35:42.379Z,99.90
2022-12-26T05:38:11.333Z,99.90
2022-12-26T05:40:38.452Z,99.90
2022-12-26T05:43:05.479Z,99.90
2022-12-26T05:45:32.584Z,99.90
2022-12-26T05:48:00.796Z,99.90
2022-12-26T05:50:28.578Z,99.90
2022-12-26T05:52:59.605Z,99.90
2022-12-26T05:55:27.042Z,99.90
2022-12-26T05:57:59.622Z,99.90
2022-12-26T06:00:26.898Z,99.90
2022-12-26T06:02:58.710Z,99.90
2022-12-26T06:05:26.028Z,99.90
2022-12-26T06:07:53.033Z,99.90
2022-12-26T06:10:20.438Z,99.90
2022-12-26T06:12:47.485Z,99.90
2022-12-26T06:15:14.488Z,99.90
2022-12-26T06:17:41.447Z,99.90
2022-12-26T06:20:08.937Z,99.90
2022-12-26T06:22:35.954Z,99.90
2022-12-26T06:25:02.935Z,99.90
2022-12-26T06:27:29.874Z,99.90
2022-12-26T06:29:56.870Z,99.90
2022-12-26T06:32:26.289Z,99.90
2022-12-26T06:34:56.609Z,99.90
2022-12-26T06:37:25.888Z,99.90
2022-12-26T06:39:52.845Z,99.90
2022-12-26T06:42:19.844Z,99.90
2022-12-26T06:44:46.797Z,99.90
2022-12-26T06:47:14.008Z,99.90
2022-12-26T06:49:41.043Z,99.90
2022-12-26T06:52:08.542Z,99.90
2022-12-26T06:54:35.682Z,99.90
2022-12-26T06:57:02.881Z,99.90
2022-12-26T06:59:29.972Z,99.90
2022-12-26T07:01:57.058Z,99.90
2022-12-26T07:04:24.990Z,99.90
2022-12-26T07:06:54.085Z,99.90
2022-12-26T07:09:21.024Z,99.90
2022-12-26T07:11:50.508Z,99.90
2022-12-26T07:14:17.773Z,99.90
2022-12-26T07:16:45.559Z,99.90
2022-12-26T07:19:14.499Z,99.90
2022-12-26T07:21:44.522Z,99.90
2022-12-26T07:24:17.509Z,99.90
2022-12-26T07:26:45.554Z,99.90
2022-12-26T07:29:13.775Z,99.90
2022-12-26T07:31:41.785Z,99.90
2022-12-26T07:34:09.012Z,99.90
2022-12-26T07:36:35.961Z,99.90
2022-12-26T07:39:03.153Z,99.90
2022-12-26T07:41:48.892Z,99.90
2022-12-26T07:44:15.999Z,99.90
2022-12-26T07:46:43.521Z,99.90
2022-12-26T07:49:12.643Z,99.90
2022-12-26T07:51:41.034Z,99.90
2022-12-26T07:54:11.346Z,99.90
2022-12-26T07:56:40.350Z,99.90
2022-12-26T07:59:08.193Z,99.90
2022-12-26T08:01:35.186Z,99.90
2022-12-26T08:04:02.396Z,99.90
2022-12-26T08:06:29.508Z,99.90
2022-12-26T08:08:58.020Z,99.90
2022-12-26T08:11:25.970Z,99.90
2022-12-26T08:13:56.115Z,99.90
2022-12-26T08:16:26.662Z,99.90
2022-12-26T08:18:56.523Z,99.90
2022-12-26T08:21:26.695Z,99.90
2022-12-26T08:23:56.396Z,99.90
2022-12-26T08:26:26.091Z,99.90
2022-12-26T08:28:55.370Z,99.90
2022-12-26T08:33:57.064Z,99.90
2022-12-26T08:36:27.387Z,99.90
2022-12-26T08:38:57.518Z,99.90
2022-12-26T08:41:25.100Z,99.90
2022-12-26T08:46:46.735Z,99.80
2022-12-26T08:49:14.246Z,99.80
2022-12-26T08:51:41.532Z,99.80
2022-12-26T08:54:09.942Z,99.80
2022-12-26T08:56:37.142Z,99.90
2022-12-26T08:59:04.476Z,99.90
2022-12-26T09:01:32.895Z,99.90
2022-12-26T09:04:04.014Z,99.90
2022-12-26T09:06:36.800Z,99.90
2022-12-26T09:09:05.508Z,99.80
2022-12-26T09:11:33.059Z,99.80
2022-12-26T09:14:01.628Z,99.70
2022-12-26T09:16:37.465Z,99.70
2022-12-26T09:19:06.604Z,99.70
2022-12-26T09:21:33.961Z,99.60
2022-12-26T09:24:04.507Z,99.60
2022-12-26T09:26:32.327Z,99.50
2022-12-26T09:28:59.546Z,99.40
2022-12-26T09:31:29.535Z,99.30
2022-12-26T09:33:57.097Z,99.10
2022-12-26T09:36:30.379Z,99.10
2022-12-26T09:38:59.045Z,99.00
2022-12-26T09:41:32.490Z,98.90
2022-12-26T09:44:02.528Z,98.70
2022-12-26T09:46:44.916Z,98.70
2022-12-26T09:49:36.603Z,98.60
2022-12-26T09:52:16.726Z,98.60
2022-12-26T09:54:51.249Z,98.50
2022-12-26T09:57:23.956Z,98.70
2022-12-26T09:59:56.874Z,98.80
2022-12-26T10:02:26.935Z,98.90
2022-12-26T10:04:57.252Z,99.00
2022-12-26T10:07:42.130Z,99.10
2022-12-26T10:10:17.582Z,99.20
2022-12-26T10:13:07.860Z,99.30
2022-12-26T10:15:58.005Z,99.40
2022-12-26T10:18:50.307Z,99.40
2022-12-26T10:21:49.604Z,99.50
2022-12-26T10:24:34.126Z,99.60
2022-12-26T10:27:09.809Z,99.70
2022-12-26T10:29:45.873Z,99.70
2022-12-26T10:32:36.883Z,99.70
2022-12-26T10:35:35.031Z,99.80
2022-12-26T10:38:30.882Z,99.80
2022-12-26T10:41:08.921Z,99.90
2022-12-26T10:43:49.041Z,99.80
2022-12-26T10:46:42.475Z,99.80
2022-12-26T10:49:28.599Z,99.80
2022-12-26T10:52:00.677Z,99.80
2022-12-26T10:54:30.080Z,99.80
2022-12-26T10:56:59.306Z,99.80
2022-12-26T10:59:47.463Z,99.80
2022-12-26T11:02:27.371Z,99.40
2022-12-26T11:05:27.240Z,99.00
2022-12-26T11:08:47.162Z,99.10
2022-12-26T11:11:27.570Z,99.60
2022-12-26T11:14:02.187Z,99.10
2022-12-26T11:16:35.779Z,99.20
2022-12-26T11:19:06.136Z,99.30
2022-12-26T11:21:34.675Z,99.20
2022-12-26T11:24:20.111Z,99.10
2022-12-26T11:26:47.632Z,98.90
2022-12-26T11:29:23.011Z,98.40
2022-12-26T11:32:07.568Z,98.20
2022-12-26T11:34:46.574Z,98.30
2022-12-26T11:37:35.495Z,98.20
2022-12-26T11:40:05.735Z,98.20
2022-12-26T11:42:35.685Z,98.30
2022-12-26T11:45:17.390Z,98.20
2022-12-26T11:47:46.162Z,98.10
2022-12-26T11:50:21.432Z,97.60
2022-12-26T11:53:05.303Z,97.40
2022-12-26T11:55:39.329Z,97.40
2022-12-26T11:58:09.750Z,97.00
2022-12-26T12:00:45.614Z,97.30
2022-12-26T12:03:19.044Z,97.50
2022-12-26T12:05:52.179Z,97.30
2022-12-26T12:08:34.824Z,96.60
2022-12-26T12:11:24.299Z,96.70
2022-12-26T12:13:58.964Z,96.30
2022-12-26T12:16:44.266Z,96.50
2022-12-26T12:19:28.510Z,96.60
2022-12-26T12:22:04.262Z,96.80
2022-12-26T12:24:59.793Z,97.00
2022-12-26T12:27:52.951Z,97.00
2022-12-26T12:30:38.109Z,97.00
2022-12-26T12:33:39.258Z,96.70
2022-12-26T12:36:13.602Z,96.60
2022-12-26T12:38:56.833Z,96.60
2022-12-26T12:41:29.114Z,96.50
2022-12-26T12:44:16.636Z,96.40
2022-12-26T12:47:10.578Z,96.30
2022-12-26T12:49:53.213Z,96.40
2022-12-26T12:52:42.356Z,96.40
2022-12-26T12:55:31.297Z,96.50
2022-12-26T12:58:04.775Z,96.50
2022-12-26T13:00:49.090Z,96.60
2022-12-26T13:03:29.471Z,96.60
2022-12-26T13:06:37.271Z,96.70
2022-12-26T13:09:21.542Z,96.60
2022-12-26T13:11:57.730Z,96.60
2022-12-26T13:14:51.445Z,96.40
2022-12-26T13:17:35.089Z,96.40
2022-12-26T13:20:13.356Z,96.30
2022-12-26T13:23:16.401Z,96.40
2022-12-26T13:26:04.876Z,96.30
2022-12-26T13:28:39.211Z,96.30
2022-12-26T13:31:06.803Z,96.40
2022-12-26T13:33:35.104Z,96.40
2022-12-26T13:36:06.746Z,96.60
2022-12-26T13:39:15.507Z,96.30
2022-12-26T13:42:20.626Z,96.30
2022-12-26T13:45:08.233Z,96.30
2022-12-26T13:47:40.412Z,96.10
2022-12-26T13:50:56.072Z,95.90
2022-12-26T13:53:45.548Z,95.90
2022-12-26T13:56:18.788Z,95.90
2022-12-26T13:59:11.137Z,95.90
2022-12-26T14:03:07.051Z,95.90
2022-12-26T14:05:33.345Z,95.90
2022-12-26T14:08:49.833Z,95.50
2022-12-26T14:12:00.987Z,95.30
2022-12-26T14:15:01.691Z,95.20
2022-12-26T14:18:07.239Z,95.40
2022-12-26T14:20:50.296Z,95.00
2022-12-26T14:23:32.358Z,95.00
2022-12-26T14:26:35.676Z,95.10
2022-12-26T14:29:33.158Z,95.10
2022-12-26T14:32:24.232Z,95.20
2022-12-26T14:35:16.511Z,95.10
2022-12-26T14:37:55.657Z,95.00
2022-12-26T14:40:34.789Z,95.10
2022-12-26T14:43:14.260Z,95.10
2022-12-26T14:45:44.452Z,95.10
2022-12-26T14:48:17.754Z,95.00
2022-12-26T14:50:55.929Z,95.10
2022-12-26T14:53:28.832Z,95.00
2022-12-26T14:56:14.092Z,95.10
2022-12-26T14:58:45.240Z,95.20
2022-12-26T15:01:14.409Z,95.20
2022-12-26T15:04:06.870Z,95.10
2022-12-26T15:06:50.411Z,95.00
2022-12-26T15:09:42.732Z,94.80
2022-12-26T15:12:31.795Z,94.70
2022-12-26T15:15:17.015Z,94.80
2022-12-26T15:18:05.303Z,94.90
2022-12-26T15:21:23.772Z,94.70
2022-12-26T15:24:34.196Z,94.70
2022-12-26T15:27:52.774Z,94.60
2022-12-26T15:30:44.659Z,94.60
2022-12-26T15:33:18.830Z,94.60
2022-12-26T15:36:01.136Z,94.40
2022-12-26T15:38:35.996Z,94.40
2022-12-26T15:41:12.637Z,94.60
2022-12-26T15:44:07.547Z,94.70
2022-12-26T15:46:39.559Z,94.70
2022-12-26T15:49:35.540Z,94.80
2022-12-26T15:52:28.437Z,94.90
2022-12-26T15:55:29.691Z,95.00
2022-12-26T15:58:06.163Z,95.00
2022-12-26T16:00:38.535Z,94.90
2022-12-26T16:03:39.406Z,94.90
2022-12-26T16:06:31.338Z,94.80
2022-12-26T16:09:09.609Z,94.70
2022-12-26T16:11:56.680Z,94.70
2022-12-26T16:14:36.349Z,94.60
2022-12-26T16:17:21.694Z,94.80
2022-12-26T16:19:51.148Z,94.70
2022-12-26T16:22:46.534Z,94.80
2022-12-26T16:25:17.061Z,94.90
2022-12-26T16:27:45.419Z,94.90
2022-12-26T16:30:21.540Z,94.90
2022-12-26T16:32:49.439Z,94.90
2022-12-26T16:35:24.561Z,94.90
2022-12-26T16:37:54.104Z,94.90
2022-12-26T16:40:30.638Z,94.90
2022-12-26T16:43:05.122Z,95.00
2022-12-26T16:45:35.340Z,95.00
2022-12-26T16:48:07.093Z,95.10
2022-12-26T16:50:37.568Z,95.00
2022-12-26T16:53:36.634Z,94.90
2022-12-26T16:56:31.243Z,94.90
2022-12-26T16:59:15.358Z,94.80
2022-12-26T17:01:50.654Z,94.90
2022-12-26T17:04:20.620Z,95.00
2022-12-26T17:07:05.249Z,95.00
2022-12-26T17:09:45.361Z,95.00
2022-12-26T17:12:26.343Z,95.00
2022-12-26T17:14:55.568Z,95.00
2022-12-26T17:17:24.977Z,95.10
2022-12-26T17:19:58.125Z,95.10
2022-12-26T17:22:36.619Z,95.10
2022-12-26T17:25:15.893Z,95.20
2022-12-26T17:27:43.684Z,95.30
2022-12-26T17:30:31.890Z,95.30
2022-12-26T17:33:29.391Z,95.40
2022-12-26T17:37:17.127Z,95.50
2022-12-26T17:39:29.781Z,95.60
2022-12-26T17:42:04.403Z,95.60
2022-12-26T17:44:35.952Z,95.60
2022-12-26T17:47:11.425Z,95.50
2022-12-26T17:49:38.563Z,95.50
2022-12-26T17:52:05.933Z,95.50
2022-12-26T17:54:33.176Z,95.60
2022-12-26T17:57:00.886Z,95.60
2022-12-26T17:59:30.425Z,95.70
2022-12-26T18:01:57.880Z,95.60
2022-12-26T18:04:25.295Z,95.60
2022-12-26T18:06:52.660Z,95.60
2022-12-26T18:09:27.936Z,95.60
2022-12-26T18:11:55.829Z,95.60
2022-12-26T18:14:23.254Z,95.70
2022-12-26T18:16:52.003Z,95.70
2022-12-26T18:19:21.721Z,95.70
2022-12-26T18:21:48.769Z,95.70
2022-12-26T18:24:15.907Z,95.70
2022-12-26T18:26:43.685Z,95.70
2022-12-26T18:29:11.304Z,95.70
2022-12-26T18:31:39.590Z,95.70
2022-12-26T18:34:14.243Z,95.80
2022-12-26T18:36:44.075Z,95.80
2022-12-26T18:39:17.244Z,95.90
2022-12-26T18:41:47.508Z,95.90
2022-12-26T18:44:43.935Z,95.90
2022-12-26T18:47:18.185Z,95.90
2022-12-26T18:49:51.168Z,95.90
2022-12-26T18:55:38.557Z,95.80
2022-12-26T18:58:08.790Z,95.70
2022-12-26T19:00:36.820Z,95.60
2022-12-26T19:03:04.259Z,95.50
2022-12-26T19:05:34.291Z,95.50
2022-12-26T19:08:02.934Z,95.40
2022-12-26T19:11:09.826Z,95.30
2022-12-26T19:13:42.036Z,95.30
2022-12-26T19:20:43.749Z,95.40
2022-12-26T19:23:54.132Z,95.50
2022-12-26T19:26:29.618Z,95.40
2022-12-26T19:29:26.016Z,95.40
2022-12-26T19:31:56.391Z,95.40
2022-12-26T19:34:52.882Z,95.40
2022-12-26T19:37:20.161Z,95.50
2022-12-26T19:39:51.285Z,95.50
2022-12-26T19:42:20.801Z,95.50
2022-12-26T19:44:58.379Z,95.40
2022-12-26T19:47:31.673Z,95.30
2022-12-26T19:50:17.958Z,95.40
2022-12-26T19:52:47.250Z,95.10
2022-12-26T19:55:14.519Z,95.00
2022-12-26T19:57:41.687Z,95.00
2022-12-26T20:00:11.113Z,95.00
2022-12-26T20:02:49.495Z,95.00
2022-12-26T20:05:16.561Z,95.00
2022-12-26T20:07:43.537Z,95.00
2022-12-26T20:10:10.485Z,95.00
2022-12-26T20:12:37.719Z,95.00
2022-12-26T20:15:05.101Z,95.00
2022-12-26T20:17:32.178Z,95.10
2022-12-26T20:19:59.241Z,95.10
2022-12-26T20:22:26.487Z,95.10
2022-12-26T20:24:56.383Z,94.90
2022-12-26T20:27:28.959Z,94.80
2022-12-26T20:29:56.178Z,94.80
2022-12-26T20:32:26.443Z,94.60
2022-12-26T20:34:57.996Z,94.60
2022-12-26T20:37:25.499Z,94.60
2022-12-26T20:39:52.701Z,94.50
2022-12-26T20:42:27.673Z,94.50
2022-12-26T20:44:55.531Z,94.60
2022-12-26T20:47:22.781Z,94.70
2022-12-26T20:49:49.883Z,94.60
2022-12-26T20:52:18.629Z,94.60
2022-12-26T20:54:46.998Z,94.70
2022-12-26T20:57:14.465Z,94.70
2022-12-26T20:59:43.686Z,94.70
2022-12-26T21:02:13.233Z,94.70
2022-12-26T21:04:40.705Z,94.70
2022-12-26T21:07:07.687Z,94.70
2022-12-26T21:09:34.785Z,94.70
2022-12-26T21:12:01.971Z,94.70
2022-12-26T21:14:29.137Z,94.60
2022-12-26T21:16:58.938Z,94.60
2022-12-26T21:19:33.466Z,94.60
2022-12-26T21:22:54.399Z,94.70
2022-12-26T21:29:05.382Z,94.70
2022-12-26T21:32:04.467Z,94.60
2022-12-26T21:34:40.151Z,94.50
2022-12-26T21:37:32.462Z,94.40
2022-12-26T21:39:59.699Z,94.30
2022-12-26T21:42:28.077Z,94.30
2022-12-26T21:45:01.977Z,94.20
2022-12-26T21:47:29.289Z,94.30
2022-12-26T21:49:57.925Z,94.40
2022-12-26T21:52:30.876Z,94.50
2022-12-26T21:55:35.896Z,94.50
2022-12-26T21:58:12.213Z,94.50
2022-12-26T22:00:39.571Z,94.50
2022-12-26T22:03:27.660Z,94.50
2022-12-26T22:05:58.300Z,94.30
2022-12-26T22:08:25.636Z,94.30
2022-12-26T22:11:11.190Z,94.30
2022-12-26T22:13:41.718Z,94.20
2022-12-26T22:16:11.011Z,94.30
2022-12-26T22:18:44.280Z,94.40
2022-12-26T22:21:14.514Z,94.40
2022-12-26T22:23:42.914Z,94.40
2022-12-26T22:26:13.244Z,94.50
2022-12-26T22:28:41.731Z,94.50
2022-12-26T22:31:36.250Z,94.50
2022-12-26T22:34:17.302Z,94.50
2022-12-26T22:36:47.436Z,94.50
2022-12-26T22:39:23.559Z,94.50
2022-12-26T22:42:02.677Z,94.50
2022-12-26T22:44:32.793Z,94.60
2022-12-26T22:47:03.705Z,94.70
2022-12-26T22:49:31.693Z,94.70
2022-12-26T22:54:46.828Z,94.80
2022-12-26T22:57:15.269Z,94.80
2022-12-26T23:00:19.552Z,94.80
2022-12-26T23:02:55.997Z,94.80
2022-12-26T23:06:06.454Z,94.80
2022-12-26T23:08:34.077Z,94.80
2022-12-26T23:11:01.370Z,94.80
2022-12-26T23:13:31.316Z,94.80
2022-12-26T23:16:10.256Z,94.90
2022-12-26T23:19:10.459Z,94.90
2022-12-26T23:21:40.573Z,94.90
2022-12-26T23:24:12.049Z,94.90
2022-12-26T23:26:41.466Z,94.90
2022-12-26T23:29:33.124Z,95.00
2022-12-26T23:32:03.098Z,95.10
2022-12-26T23:34:33.184Z,95.10
2022-12-26T23:37:00.507Z,95.10
2022-12-26T23:39:30.296Z,95.10
2022-12-26T23:41:58.685Z,95.10
2022-12-26T23:44:25.904Z,95.10
2022-12-26T23:46:53.058Z,95.20
2022-12-26T23:49:20.097Z,95.20
2022-12-26T23:51:47.202Z,95.20
2022-12-26T23:54:14.566Z,95.20
2022-12-26T23:56:41.513Z,95.30
2022-12-26T23:59:08.724Z,95.30
